Time;durP1;ratioP1;P1;durP2;ratioP2;P2;SDS_P1;SDS_P2;PMS_P1;PMS_P2;Temp;Humidity;BMP_temperature;BMP_pressure;BME280_temperature;BME280_humidity;BME280_pressure;Samples;Min_cycle;Max_cycle;Signal;HPM_P1;HPM_P2
2022/07/21 00:02:25;;;;;;;1143.68;596.55;;;20.70;99.90;;;;;;5066733;28;20177;-77
2022/07/21 00:04:52;;;;;;;1604.53;822.55;;;20.70;99.90;;;;;;5084241;28;20599;-76
2022/07/21 00:07:18;;;;;;;1999.90;999.90;;;20.60;99.90;;;;;;5054690;28;20213;-75
2022/07/21 00:09:43;;;;;;;1999.90;999.90;;;20.60;99.90;;;;;;5062579;28;20223;-77
2022/07/21 00:12:09;;;;;;;1999.90;999.90;;;20.80;99.90;;;;;;5085451;28;20540;-77
2022/07/21 00:14:34;;;;;;;1114.95;579.03;;;20.60;99.90;;;;;;5087237;28;20185;-77
2022/07/21 00:17:00;;;;;;;1575.88;799.35;;;20.50;99.90;;;;;;5060500;28;20185;-77
2022/07/21 00:19:26;;;;;;;1999.90;999.90;;;20.70;99.90;;;;;;5082601;28;20208;-77
2022/07/21 00:21:51;;;;;;;1999.90;999.90;;;20.70;99.90;;;;;;5075700;28;20596;-76
2022/07/21 00:24:17;;;;;;;1999.90;999.90;;;20.60;99.90;;;;;;5050079;28;20189;-77
2022/07/21 00:26:43;;;;;;;1064.40;542.47;;;20.60;99.90;;;;;;5072295;28;20234;-77
2022/07/21 00:29:08;;;;;;;1573.63;798.22;;;20.50;99.90;;;;;;5055165;28;20713;-77
2022/07/21 00:31:34;;;;;;;1999.90;999.90;;;20.50;99.90;;;;;;5052395;28;20549;-76
2022/07/21 00:34:00;;;;;;;1584.40;807.63;;;20.50;99.90;;;;;;5081325;28;20592;-77
2022/07/21 00:36:25;;;;;;;1999.90;999.90;;;20.50;99.90;;;;;;5057999;28;20180;-76
2022/07/21 00:38:51;;;;;;;1999.90;999.90;;;20.50;99.90;;;;;;5078428;28;20195;-77
2022/07/21 00:41:17;;;;;;;1999.90;999.90;;;20.40;99.90;;;;;;5066525;28;20188;-76
2022/07/21 00:43:42;;;;;;;1543.78;777.78;;;20.30;99.90;;;;;;5073750;28;20185;-74
2022/07/21 00:46:08;;;;;;;1999.90;999.90;;;20.30;99.90;;;;;;5056109;28;20223;-77
2022/07/21 00:48:34;;;;;;;1999.90;999.90;;;20.30;99.90;;;;;;5047563;28;20295;-77
2022/07/21 00:51:00;;;;;;;1999.90;999.90;;;20.40;99.90;;;;;;5088368;28;20185;-77
2022/07/21 00:53:25;;;;;;;1999.90;999.90;;;20.50;99.90;;;;;;5073341;28;20214;-77
2022/07/21 00:55:51;;;;;;;1999.90;999.90;;;20.50;99.90;;;;;;5072565;28;20239;-77
2022/07/21 00:58:17;;;;;;;1999.90;999.90;;;20.70;99.90;;;;;;5083684;28;20185;-77
2022/07/21 01:00:43;;;;;;;1549.88;784.92;;;20.60;99.90;;;;;;5058424;28;20233;-78
2022/07/21 01:03:09;;;;;;;1999.90;999.90;;;20.50;99.90;;;;;;5058335;28;20263;-77
2022/07/21 01:05:35;;;;;;;1999.90;999.90;;;20.50;99.90;;;;;;5061674;28;20193;-78
2022/07/21 01:08:03;;;;;;;1999.90;999.90;;;20.50;99.90;;;;;;5050577;28;20724;-77
2022/07/21 01:10:31;;;;;;;1999.90;999.90;;;20.50;99.90;;;;;;5054837;28;20197;-77
2022/07/21 01:12:58;;;;;;;1999.90;999.90;;;20.40;99.90;;;;;;5085385;28;20193;-76
2022/07/21 01:15:24;;;;;;;1999.90;999.90;;;20.50;99.90;;;;;;5072770;28;20216;-75
2022/07/21 01:17:51;;;;;;;1999.90;999.90;;;20.40;99.90;;;;;;5075195;28;20657;-77
2022/07/21 01:20:20;;;;;;;1999.90;999.90;;;20.20;99.90;;;;;;5075866;28;20185;-77
2022/07/21 01:22:50;;;;;;;1999.90;999.90;;;20.20;99.90;;;;;;5076399;28;20177;-77
2022/07/21 01:25:17;;;;;;;1999.90;999.90;;;20.20;99.90;;;;;;5076976;28;20188;-76
2022/07/21 01:27:42;;;;;;;1999.90;999.90;;;20.30;99.90;;;;;;5087579;28;20211;-77
2022/07/21 01:30:09;;;;;;;1999.90;999.90;;;20.40;99.90;;;;;;5059957;28;20275;-75
2022/07/21 01:32:37;;;;;;;1999.90;999.90;;;20.30;99.90;;;;;;5046910;28;20184;-76
2022/07/21 01:35:05;;;;;;;1999.90;999.90;;;20.20;99.90;;;;;;5058168;28;20186;-76
2022/07/21 01:37:33;;;;;;;1999.90;999.90;;;20.20;99.90;;;;;;5079084;28;20399;-77
2022/07/21 01:42:43;;;;;;;1536.53;772.90;;;20.20;99.90;;;;;;5079482;28;20228;-77
2022/07/21 01:45:09;;;;;;;1999.90;999.90;;;20.30;99.90;;;;;;5090055;28;20181;-77
2022/07/21 01:47:35;;;;;;;1999.90;999.90;;;20.20;99.90;;;;;;5061610;28;20196;-76
2022/07/21 01:50:01;;;;;;;1999.90;999.90;;;20.10;99.90;;;;;;5092867;28;20200;-77
2022/07/21 01:52:27;;;;;;;1999.90;999.90;;;20.10;99.90;;;;;;5077247;28;20177;-76
2022/07/21 01:54:52;;;;;;;1999.90;999.90;;;20.20;99.90;;;;;;5077216;28;20682;-77
2022/07/21 01:57:18;;;;;;;1999.90;999.90;;;20.20;99.90;;;;;;5056144;28;20189;-77
2022/07/21 01:59:44;;;;;;;1999.90;999.90;;;20.20;99.90;;;;;;5077492;28;20206;-77
2022/07/21 02:02:10;;;;;;;1999.90;999.90;;;20.10;99.90;;;;;;5088322;28;20193;-77
2022/07/21 02:04:36;;;;;;;1999.90;999.90;;;20.10;99.90;;;;;;5091349;28;20724;-78
2022/07/21 02:07:02;;;;;;;1999.90;999.90;;;20.20;99.90;;;;;;5056916;28;20276;-77
2022/07/21 02:09:28;;;;;;;1999.90;999.90;;;20.10;99.90;;;;;;5080492;28;20184;-77
2022/07/21 02:11:54;;;;;;;1999.90;999.90;;;20.10;99.90;;;;;;5079111;28;20219;-77
2022/07/21 02:14:20;;;;;;;1999.90;999.90;;;20.10;99.90;;;;;;5057005;28;20193;-77
2022/07/21 02:16:45;;;;;;;1999.90;999.90;;;20.10;99.90;;;;;;5081798;28;20246;-76
2022/07/21 02:19:11;;;;;;;1999.90;999.90;;;20.20;99.90;;;;;;5085641;28;20185;-76
2022/07/21 02:21:37;;;;;;;1999.90;999.90;;;20.10;99.90;;;;;;5070904;28;20188;-76
2022/07/21 02:24:03;;;;;;;1999.90;999.90;;;20.10;99.90;;;;;;5075024;28;20242;-77
2022/07/21 02:26:29;;;;;;;1999.90;999.90;;;20.00;99.90;;;;;;5085219;28;20181;-77
2022/07/21 02:28:55;;;;;;;1999.90;999.90;;;20.10;99.90;;;;;;5085529;28;20207;-76
2022/07/21 02:31:20;;;;;;;1999.90;999.90;;;20.10;99.90;;;;;;5058090;28;20626;-77
2022/07/21 02:33:46;;;;;;;1999.90;999.90;;;20.20;99.90;;;;;;5074271;28;20192;-77
2022/07/21 02:36:12;;;;;;;1999.90;999.90;;;20.30;99.90;;;;;;5070447;28;20181;-77
2022/07/21 02:38:38;;;;;;;1999.90;999.90;;;20.30;99.90;;;;;;5092310;28;20208;-77
2022/07/21 02:41:03;;;;;;;1999.90;999.90;;;20.40;99.90;;;;;;5074934;28;20629;-73
2022/07/21 02:43:29;;;;;;;1999.90;999.90;;;20.30;99.90;;;;;;5088086;28;20189;-77
2022/07/21 02:45:55;;;;;;;1999.90;999.90;;;20.10;99.90;;;;;;5038664;28;20180;-76
2022/07/21 02:48:20;;;;;;;1528.20;769.25;;;20.20;99.90;;;;;;5070046;28;20703;-77
2022/07/21 02:50:46;;;;;;;1999.90;999.90;;;20.10;99.90;;;;;;5083482;28;20182;-76
2022/07/21 02:53:19;;;;;;;1999.90;999.90;;;20.20;99.90;;;;;;5044660;28;20556;-76
2022/07/21 02:55:46;;;;;;;1999.90;999.90;;;20.20;99.90;;;;;;5081573;28;20199;-76
2022/07/21 02:58:27;;;;;;;1999.90;999.90;;;20.30;99.90;;;;;;5074068;28;20174;-76
2022/07/21 03:01:05;;;;;;;1999.90;999.90;;;20.10;99.90;;;;;;5077379;28;20178;-76
2022/07/21 03:03:33;;;;;;;1999.90;999.90;;;20.10;99.90;;;;;;5067692;28;20279;-77
2022/07/21 03:05:59;;;;;;;1999.90;999.90;;;20.10;99.90;;;;;;5081579;28;20188;-77
2022/07/21 03:08:26;;;;;;;1999.90;999.90;;;20.10;99.90;;;;;;5091398;28;20200;-76
2022/07/21 03:10:52;;;;;;;1999.90;999.90;;;20.20;99.90;;;;;;5074427;28;20266;-77
2022/07/21 03:13:18;;;;;;;1999.90;999.90;;;20.10;99.90;;;;;;5084535;28;20622;-77
2022/07/21 03:15:44;;;;;;;1999.90;999.90;;;20.00;99.90;;;;;;5069028;28;20193;-77
2022/07/21 03:18:10;;;;;;;1999.90;999.90;;;20.00;99.90;;;;;;5080949;28;20192;-76
2022/07/21 03:20:38;;;;;;;1999.90;999.90;;;20.00;99.90;;;;;;5066944;28;20537;-77
2022/07/21 03:23:04;;;;;;;1999.90;999.90;;;20.00;99.90;;;;;;5079962;28;20239;-78
2022/07/21 03:25:30;;;;;;;1999.90;999.90;;;19.80;99.90;;;;;;5071124;28;20182;-78
2022/07/21 03:27:56;;;;;;;1999.90;999.90;;;19.70;99.90;;;;;;5072935;28;20616;-78
2022/07/21 03:30:23;;;;;;;1999.90;999.90;;;19.80;99.90;;;;;;5092548;28;20188;-77
2022/07/21 03:32:50;;;;;;;1999.90;999.90;;;19.80;99.90;;;;;;5068387;28;20223;-77
2022/07/21 03:35:16;;;;;;;1999.90;999.90;;;19.90;99.90;;;;;;5083568;28;20185;-77
2022/07/21 03:37:43;;;;;;;1999.90;999.90;;;19.90;99.90;;;;;;5072826;28;20196;-78
2022/07/21 03:40:11;;;;;;;1999.90;999.90;;;19.90;99.90;;;;;;5082943;28;21776;-76
2022/07/21 03:42:37;;;;;;;1999.90;999.90;;;19.80;99.90;;;;;;5081382;28;20307;-77
2022/07/21 03:45:03;;;;;;;1999.90;999.90;;;19.80;99.90;;;;;;5054862;28;20264;-77
2022/07/21 03:47:28;;;;;;;1999.90;999.90;;;19.80;99.90;;;;;;5060208;28;20215;-75
2022/07/21 03:49:54;;;;;;;1999.90;999.90;;;19.80;99.90;;;;;;5055022;28;20521;-73
2022/07/21 03:52:20;;;;;;;1999.90;999.90;;;19.80;99.90;;;;;;5084552;28;20768;-76
2022/07/21 03:54:45;;;;;;;1999.90;999.90;;;19.90;99.90;;;;;;5074777;28;20562;-75
2022/07/21 03:57:11;;;;;;;1999.90;999.90;;;19.90;99.90;;;;;;5044768;28;20206;-75
2022/07/21 03:59:36;;;;;;;1999.90;999.90;;;19.90;99.90;;;;;;5045776;28;20178;-74
2022/07/21 04:02:02;;;;;;;1999.90;999.90;;;19.90;99.90;;;;;;5057209;28;20184;-77
2022/07/21 04:04:28;;;;;;;1999.90;999.90;;;19.90;99.90;;;;;;5082780;28;20196;-76
2022/07/21 04:06:54;;;;;;;1999.90;999.90;;;19.90;99.90;;;;;;5071819;28;20195;-76
2022/07/21 04:09:19;;;;;;;1999.90;999.90;;;19.90;99.90;;;;;;5066763;28;20618;-77
2022/07/21 04:11:45;;;;;;;1999.90;999.90;;;19.90;99.90;;;;;;5073065;28;20181;-76
2022/07/21 04:14:11;;;;;;;1999.90;999.90;;;19.90;99.90;;;;;;5055520;28;20554;-76
2022/07/21 04:16:36;;;;;;;1999.90;999.90;;;20.00;99.90;;;;;;5080146;28;20218;-75
2022/07/21 04:19:02;;;;;;;1999.90;999.90;;;20.00;99.90;;;;;;5076112;28;20713;-77
2022/07/21 04:21:28;;;;;;;1999.90;999.90;;;20.10;99.90;;;;;;5070534;28;20211;-76
2022/07/21 04:23:53;;;;;;;1999.90;999.90;;;20.00;99.90;;;;;;5070994;28;20188;-76
2022/07/21 04:26:19;;;;;;;1999.90;999.90;;;20.20;99.90;;;;;;5063154;28;20189;-77
2022/07/21 04:28:45;;;;;;;1999.90;999.90;;;20.20;99.90;;;;;;5067290;28;20201;-75
2022/07/21 04:31:10;;;;;;;1999.90;999.90;;;20.30;99.90;;;;;;5070611;28;20193;-77
2022/07/21 04:33:36;;;;;;;1528.95;768.75;;;20.30;99.90;;;;;;5062665;28;20242;-76
2022/07/21 04:36:02;;;;;;;1999.90;999.90;;;20.30;99.90;;;;;;5046832;28;20218;-75
2022/07/21 04:38:27;;;;;;;1999.90;999.90;;;20.30;99.90;;;;;;5077509;28;20272;-76
2022/07/21 04:40:53;;;;;;;1999.90;999.90;;;20.20;99.90;;;;;;5089015;28;20191;-77
2022/07/21 04:43:18;;;;;;;1999.90;999.90;;;20.20;99.90;;;;;;5091208;28;20185;-76
2022/07/21 04:45:44;;;;;;;1999.90;999.90;;;20.30;99.90;;;;;;5069513;28;20571;-76
2022/07/21 04:48:10;;;;;;;1537.25;774.63;;;20.30;99.90;;;;;;5060656;28;20284;-76
2022/07/21 04:50:35;;;;;;;1999.90;999.90;;;20.20;99.90;;;;;;5072663;28;20274;-76
2022/07/21 04:53:01;;;;;;;1999.90;999.90;;;20.20;99.90;;;;;;5069546;28;20181;-77
2022/07/21 04:55:27;;;;;;;1999.90;999.90;;;20.10;99.90;;;;;;5076557;28;20188;-74
2022/07/21 04:57:54;;;;;;;1999.90;999.90;;;20.10;99.90;;;;;;5077828;28;20181;-76
2022/07/21 05:00:23;;;;;;;1999.90;999.90;;;20.20;99.90;;;;;;5078109;28;20539;-75
2022/07/21 05:02:51;;;;;;;1999.90;999.90;;;20.30;99.90;;;;;;5084709;28;20242;-76
2022/07/21 05:05:17;;;;;;;1999.90;999.90;;;20.30;99.90;;;;;;5091621;28;20918;-76
2022/07/21 05:07:43;;;;;;;1999.90;999.90;;;20.30;99.90;;;;;;5080566;28;20200;-77
2022/07/21 05:10:12;;;;;;;1999.90;999.90;;;20.30;99.90;;;;;;5082256;28;20180;-77
2022/07/21 05:12:38;;;;;;;1999.90;999.90;;;20.30;99.90;;;;;;5067242;28;20268;-77
2022/07/21 05:15:05;;;;;;;1999.90;999.90;;;20.40;99.90;;;;;;5077275;28;20611;-77
2022/07/21 05:17:31;;;;;;;1999.90;999.90;;;20.60;99.90;;;;;;5028023;28;20193;-77
2022/07/21 05:19:58;;;;;;;1533.30;770.92;;;20.70;99.90;;;;;;5076448;28;20212;-77
2022/07/21 05:22:24;;;;;;;1999.90;999.90;;;20.80;99.90;;;;;;5071605;28;20181;-76
2022/07/21 05:24:50;;;;;;;1999.90;999.90;;;20.80;99.90;;;;;;5076799;28;20622;-72
2022/07/21 05:27:15;;;;;;;1999.90;999.90;;;20.80;99.90;;;;;;5096884;28;20181;-76
2022/07/21 05:29:41;;;;;;;1999.90;999.90;;;20.80;99.90;;;;;;5067559;28;20550;-76
2022/07/21 05:32:07;;;;;;;1999.90;999.90;;;20.70;99.90;;;;;;5076342;28;20165;-76
2022/07/21 05:34:32;;;;;;;1999.90;999.90;;;20.60;99.90;;;;;;5077154;28;20656;-76
2022/07/21 05:36:58;;;;;;;1999.90;999.90;;;20.60;99.90;;;;;;5081430;28;20294;-76
2022/07/21 05:39:23;;;;;;;1999.90;999.90;;;20.50;99.90;;;;;;5095045;28;20184;-76
2022/07/21 05:41:49;;;;;;;1999.90;999.90;;;20.50;99.90;;;;;;5082316;28;20492;-76
2022/07/21 05:44:15;;;;;;;1999.90;999.90;;;20.50;99.90;;;;;;5075678;28;20178;-76
2022/07/21 05:46:40;;;;;;;1999.90;999.90;;;20.40;99.90;;;;;;5064750;28;20176;-76
2022/07/21 05:49:06;;;;;;;1999.90;999.90;;;20.40;99.90;;;;;;5077458;28;20201;-76
2022/07/21 05:51:32;;;;;;;1999.90;999.90;;;20.40;99.90;;;;;;5047211;28;20189;-76
2022/07/21 05:53:57;;;;;;;1999.90;999.90;;;20.30;99.90;;;;;;5057545;28;20181;-76
2022/07/21 05:56:23;;;;;;;1999.90;999.90;;;20.20;99.90;;;;;;5069336;28;20234;-75
2022/07/21 05:58:49;;;;;;;1999.90;999.90;;;20.00;99.90;;;;;;5063638;28;20192;-75
2022/07/21 06:01:16;;;;;;;1999.90;999.90;;;20.00;99.90;;;;;;5063937;28;20268;-74
2022/07/21 06:03:46;;;;;;;1999.90;999.90;;;19.90;99.90;;;;;;5076404;28;20598;-77
2022/07/21 06:06:14;;;;;;;1999.90;999.90;;;19.90;99.90;;;;;;5084184;28;20275;-71
2022/07/21 06:08:41;;;;;;;1999.90;999.90;;;20.00;99.90;;;;;;5060665;28;20288;-72
2022/07/21 06:11:11;;;;;;;1999.90;999.90;;;20.00;99.90;;;;;;5086906;28;20178;-73
2022/07/21 06:13:38;;;;;;;1999.90;999.90;;;20.00;99.90;;;;;;5070141;28;20695;-73
2022/07/21 06:16:04;;;;;;;1999.90;999.90;;;20.00;99.90;;;;;;5073709;28;20230;-74
2022/07/21 06:18:30;;;;;;;1999.90;999.90;;;20.00;99.90;;;;;;5088576;28;20182;-72
2022/07/21 06:20:55;;;;;;;1999.90;999.90;;;20.00;99.90;;;;;;5083429;28;20586;-70
2022/07/21 06:23:22;;;;;;;1311.25;999.90;;;19.90;99.90;;;;;;5077432;28;21059;-69
2022/07/21 06:25:48;;;;;;;939.67;676.30;;;19.80;99.90;;;;;;5085582;28;20268;-69
2022/07/21 06:28:13;;;;;;;1096.65;564.25;;;20.00;99.90;;;;;;5070731;28;20209;-69
2022/07/21 06:30:39;;;;;;;1999.90;999.90;;;19.90;99.90;;;;;;5087295;28;20190;-69
2022/07/21 06:33:05;;;;;;;1556.82;786.63;;;19.80;99.90;;;;;;5082542;28;20676;-69
2022/07/21 06:35:31;;;;;;;1999.90;999.90;;;19.70;99.90;;;;;;5069494;28;20169;-68
2022/07/21 06:37:57;;;;;;;1999.90;999.90;;;19.90;99.90;;;;;;5055013;28;20866;-71
2022/07/21 06:40:23;;;;;;;1999.90;999.90;;;19.90;99.90;;;;;;5066503;28;20177;-69
2022/07/21 06:42:49;;;;;;;1999.90;999.90;;;19.90;99.90;;;;;;5069083;28;20242;-68
2022/07/21 06:45:15;;;;;;;1999.90;999.90;;;19.80;99.90;;;;;;5080309;28;20184;-67
2022/07/21 06:47:40;;;;;;;1999.90;999.90;;;19.80;99.90;;;;;;5080671;28;20738;-68
2022/07/21 06:50:08;;;;;;;1999.90;999.90;;;19.70;99.90;;;;;;5076953;28;20192;-67
2022/07/21 06:52:34;;;;;;;1999.90;999.90;;;19.70;99.90;;;;;;5066987;28;20173;-68
2022/07/21 06:55:01;;;;;;;1999.90;999.90;;;19.60;99.90;;;;;;5086589;28;20747;-67
2022/07/21 06:57:27;;;;;;;1999.90;999.90;;;19.50;99.90;;;;;;5081223;28;20264;-69
2022/07/21 06:59:52;;;;;;;1999.90;999.90;;;19.60;99.90;;;;;;5049961;28;20296;-68
2022/07/21 07:02:18;;;;;;;1999.90;999.90;;;19.60;99.90;;;;;;5087666;28;20196;-69
2022/07/21 07:04:44;;;;;;;1999.90;999.90;;;19.40;99.90;;;;;;5044603;28;20181;-72
2022/07/21 07:07:10;;;;;;;1999.90;999.90;;;19.40;99.90;;;;;;5076368;28;20207;-69
2022/07/21 07:09:36;;;;;;;1999.90;999.90;;;19.40;99.90;;;;;;5060574;28;20302;-70
2022/07/21 07:12:05;;;;;;;1999.90;999.90;;;19.50;99.90;;;;;;5074357;28;20220;-69
2022/07/21 07:14:31;;;;;;;1999.90;999.90;;;19.50;99.90;;;;;;5078830;28;20178;-70
2022/07/21 07:16:58;;;;;;;146.15;105.50;;;19.50;99.90;;;;;;5076633;28;20640;-69
2022/07/21 07:19:23;;;;;;;1999.90;999.90;;;19.50;99.90;;;;;;5067567;28;20247;-73
2022/07/21 07:21:49;;;;;;;1999.90;999.90;;;19.60;99.90;;;;;;5076308;28;20173;-69
2022/07/21 07:24:15;;;;;;;1999.90;999.90;;;19.50;99.90;;;;;;5041012;28;20200;-70
2022/07/21 07:26:40;;;;;;;1561.03;792.42;;;19.50;99.90;;;;;;5050682;28;20601;-70
2022/07/21 07:29:06;;;;;;;1999.90;999.90;;;19.50;99.90;;;;;;5077899;28;20209;-69
2022/07/21 07:31:32;;;;;;;1999.90;999.90;;;19.60;99.90;;;;;;5074020;28;20182;-72
2022/07/21 07:33:58;;;;;;;1999.90;999.90;;;19.60;99.90;;;;;;5067485;28;20193;-73
2022/07/21 07:36:25;;;;;;;1999.90;999.90;;;19.60;99.90;;;;;;5078144;28;20181;-72
2022/07/21 07:38:52;;;;;;;1999.90;999.90;;;19.60;99.90;;;;;;5072585;28;20263;-71
2022/07/21 07:41:22;;;;;;;1999.90;999.90;;;19.70;99.90;;;;;;5076543;28;20193;-73
2022/07/21 07:43:48;;;;;;;1999.90;999.90;;;19.70;99.90;;;;;;5074056;28;20176;-71
2022/07/21 07:46:14;;;;;;;1999.90;999.90;;;19.80;99.90;;;;;;5078784;28;20260;-71
2022/07/21 07:48:41;;;;;;;1999.90;999.90;;;19.80;99.90;;;;;;5088025;28;20288;-74
2022/07/21 07:51:08;;;;;;;1999.90;999.90;;;20.00;99.90;;;;;;5065157;28;20589;-70
2022/07/21 07:53:34;;;;;;;1168.55;999.90;;;20.00;99.90;;;;;;5073013;28;20181;-70
2022/07/21 07:56:00;;;;;;;1155.60;999.90;;;20.00;99.90;;;;;;5062084;28;20627;-72
2022/07/21 07:58:26;;;;;;;1142.43;999.90;;;20.00;99.90;;;;;;5074570;28;20196;-72
2022/07/21 08:00:52;;;;;;;1145.32;999.90;;;19.90;99.90;;;;;;5082204;28;20665;-70
2022/07/21 08:03:18;;;;;;;1134.60;999.90;;;20.10;99.90;;;;;;5072555;28;20192;-70
2022/07/21 08:05:44;;;;;;;1150.18;999.90;;;20.20;99.90;;;;;;5074155;28;20284;-71
2022/07/21 08:08:10;;;;;;;1147.95;999.90;;;20.20;99.90;;;;;;5083177;28;20202;-69
2022/07/21 08:10:36;;;;;;;1156.15;999.90;;;20.10;99.90;;;;;;5078767;28;20216;-70
2022/07/21 08:13:02;;;;;;;1150.20;999.90;;;20.10;99.90;;;;;;5058356;28;20305;-73
2022/07/21 08:15:27;;;;;;;1157.65;999.90;;;20.20;99.90;;;;;;5065168;28;20550;-72
2022/07/21 08:17:53;;;;;;;1158.53;999.90;;;20.30;99.90;;;;;;5062188;28;20267;-72
2022/07/21 08:20:19;;;;;;;1141.22;999.90;;;20.20;99.90;;;;;;5054192;28;20177;-71
2022/07/21 08:22:45;;;;;;;1155.15;999.90;;;20.20;99.90;;;;;;5077528;28;20182;-76
2022/07/21 08:25:10;;;;;;;1138.43;999.90;;;20.20;99.90;;;;;;5059462;28;20194;-72
2022/07/21 08:27:38;;;;;;;1156.63;999.90;;;20.30;99.90;;;;;;5070837;28;20233;-71
2022/07/21 08:30:04;;;;;;;1170.32;999.90;;;20.40;99.90;;;;;;5046307;28;20262;-69
2022/07/21 08:32:30;;;;;;;1175.35;999.90;;;20.40;99.90;;;;;;5040800;28;20209;-69
2022/07/21 08:34:55;;;;;;;1158.18;999.90;;;20.50;99.90;;;;;;5053396;28;20216;-69
2022/07/21 08:37:21;;;;;;;1161.45;999.90;;;20.60;99.90;;;;;;5042984;28;20181;-69
2022/07/21 08:39:47;;;;;;;1154.72;999.90;;;20.60;99.90;;;;;;5077630;28;20185;-70
2022/07/21 08:42:14;;;;;;;1155.32;999.90;;;20.50;99.90;;;;;;5056457;28;20573;-70
2022/07/21 08:44:39;;;;;;;1170.50;999.90;;;20.60;99.90;;;;;;5079489;28;20552;-72
2022/07/21 08:47:06;;;;;;;1171.65;999.90;;;20.60;99.90;;;;;;5069598;28;20196;-69
2022/07/21 08:49:34;;;;;;;1152.78;999.90;;;20.50;99.90;;;;;;5057153;28;20216;-72
2022/07/21 08:51:59;;;;;;;1160.55;999.90;;;20.50;99.90;;;;;;5061565;28;20224;-75
2022/07/21 08:54:25;;;;;;;1167.15;999.90;;;20.50;99.90;;;;;;5081356;28;20205;-72
2022/07/21 08:56:51;;;;;;;1150.38;999.90;;;20.50;99.90;;;;;;5079882;28;20184;-69
2022/07/21 08:59:16;;;;;;;1158.10;999.90;;;20.60;99.90;;;;;;5085567;28;20565;-76
2022/07/21 09:01:42;;;;;;;1161.57;999.90;;;20.80;99.90;;;;;;5067335;28;20225;-77
2022/07/21 09:04:30;;;;;;;1174.70;999.90;;;20.70;99.90;;;;;;5079366;28;20180;-73
2022/07/21 09:07:04;;;;;;;1166.00;999.90;;;20.60;99.90;;;;;;5084160;28;20215;-73
2022/07/21 09:09:32;;;;;;;1164.28;999.90;;;20.60;99.90;;;;;;5072469;28;20691;-72
2022/07/21 09:11:59;;;;;;;1156.10;999.90;;;20.30;99.90;;;;;;5080138;28;20192;-72
2022/07/21 09:14:28;;;;;;;1144.35;999.90;;;20.20;99.90;;;;;;5060648;28;20185;-72
2022/07/21 09:16:59;;;;;;;1158.65;999.90;;;20.20;99.90;;;;;;5072671;28;20173;-72
2022/07/21 09:19:26;;;;;;;1171.32;999.90;;;20.10;99.90;;;;;;5082559;28;20189;-72
2022/07/21 09:21:55;;;;;;;1151.72;999.90;;;20.10;99.90;;;;;;5072299;28;20182;-73
2022/07/21 09:24:25;;;;;;;1160.20;999.90;;;20.10;99.90;;;;;;5082971;28;20264;-73
2022/07/21 09:27:02;;;;;;;1144.68;999.90;;;20.00;99.90;;;;;;5073743;28;20162;-72
2022/07/21 09:29:36;;;;;;;1153.97;999.90;;;19.90;99.90;;;;;;5075016;28;20201;-73
2022/07/21 09:32:21;;;;;;;1168.15;999.90;;;19.90;99.90;;;;;;5075437;28;20511;-73
2022/07/21 09:34:49;;;;;;;1167.68;999.90;;;19.90;99.90;;;;;;5084373;28;20195;-73
2022/07/21 09:37:15;;;;;;;1167.28;999.90;;;20.00;99.90;;;;;;5081992;28;20181;-73
2022/07/21 09:39:41;;;;;;;1155.13;999.90;;;19.90;99.90;;;;;;5083573;28;20727;-72
2022/07/21 09:42:20;;;;;;;1156.78;999.90;;;20.00;99.90;;;;;;5090835;28;20577;-72
2022/07/21 09:44:56;;;;;;;1156.57;999.90;;;20.10;99.90;;;;;;5090421;28;20194;-72
2022/07/21 09:47:24;;;;;;;1169.47;999.90;;;20.10;99.90;;;;;;5077999;28;20212;-72
2022/07/21 09:49:51;;;;;;;1149.13;999.90;;;20.10;99.90;;;;;;5064591;28;20182;-72
2022/07/21 09:52:32;;;;;;;1174.82;999.90;;;20.10;99.90;;;;;;5089549;28;20250;-72
2022/07/21 09:55:02;;;;;;;1153.97;999.90;;;20.10;99.90;;;;;;5075669;28;20185;-72
2022/07/21 09:57:29;;;;;;;1156.05;999.90;;;20.20;99.90;;;;;;5077735;28;20176;-72
2022/07/21 09:59:55;;;;;;;1160.38;999.90;;;20.20;99.90;;;;;;5065413;28;20244;-72
2022/07/21 10:02:23;;;;;;;1159.80;999.90;;;20.20;99.90;;;;;;5090568;28;20263;-73
2022/07/21 10:05:11;;;;;;;1170.97;999.90;;;20.20;99.90;;;;;;5094748;28;20224;-73
2022/07/21 10:07:40;;;;;;;1171.90;999.90;;;20.30;99.90;;;;;;5088987;28;20174;-72
2022/07/21 10:10:06;;;;;;;1156.40;999.90;;;20.20;99.90;;;;;;5077672;28;20181;-72
2022/07/21 10:12:33;;;;;;;1153.28;999.90;;;20.10;99.90;;;;;;5078254;28;20184;-73
2022/07/21 10:14:58;;;;;;;1158.90;999.90;;;20.10;99.90;;;;;;5076271;28;20188;-73
2022/07/21 10:17:25;;;;;;;1156.00;999.90;;;20.20;99.90;;;;;;5092725;28;20309;-73
2022/07/21 10:20:21;;;;;;;1176.97;999.90;;;20.40;99.90;;;;;;5071697;28;20195;-72
2022/07/21 10:23:14;;;;;;;1169.72;999.90;;;20.60;99.90;;;;;;5076085;28;20181;-73
2022/07/21 10:25:42;;;;;;;1162.38;999.90;;;20.90;99.90;;;;;;5079511;28;20185;-73
2022/07/21 10:28:18;;;;;;;1166.18;999.90;;;21.10;99.90;;;;;;5067625;28;20287;-72
2022/07/21 10:30:49;;;;;;;1125.78;999.90;;;21.10;99.90;;;;;;5088686;28;20184;-72
2022/07/21 10:33:19;;;;;;;1124.47;999.90;;;21.10;99.90;;;;;;5077209;28;20182;-73
2022/07/21 10:35:49;;;;;;;1111.28;999.90;;;21.30;99.90;;;;;;5062222;28;20706;-73
2022/07/21 10:38:29;;;;;;;1092.47;995.50;;;21.40;99.90;;;;;;5075058;28;20256;-73
2022/07/21 10:40:57;;;;;;;1072.78;986.15;;;21.60;99.90;;;;;;5087523;28;20562;-73
2022/07/21 10:43:25;;;;;;;1065.10;979.03;;;21.50;99.90;;;;;;5076146;28;20552;-73
2022/07/21 10:45:52;;;;;;;1093.53;996.83;;;21.60;99.90;;;;;;5093775;28;20531;-73
2022/07/21 10:48:36;;;;;;;1075.68;987.33;;;21.70;99.90;;;;;;5075156;28;20200;-73
2022/07/21 10:51:06;;;;;;;1052.80;969.58;;;21.90;99.90;;;;;;5081731;28;20192;-73
2022/07/21 10:53:32;;;;;;;1035.35;954.38;;;22.20;99.90;;;;;;5063132;28;20181;-72
2022/07/21 10:55:57;;;;;;;1037.05;955.92;;;22.40;99.90;;;;;;5077835;28;20185;-72
2022/07/21 10:58:23;;;;;;;1035.10;953.28;;;22.60;99.90;;;;;;5084229;28;20195;-73
2022/07/21 11:00:49;;;;;;;969.35;896.83;;;22.80;99.90;;;;;;5081742;28;20260;-73
2022/07/21 11:03:25;;;;;;;903.10;839.47;;;22.80;99.90;;;;;;5060504;28;20239;-73
2022/07/21 11:06:05;;;;;;;866.47;807.22;;;23.10;99.90;;;;;;5077189;28;20629;-73
2022/07/21 11:08:33;;;;;;;847.58;790.53;;;23.20;99.90;;;;;;5065581;28;20241;-72
2022/07/21 11:11:15;;;;;;;703.03;659.53;;;23.40;99.90;;;;;;5065372;28;20181;-73
2022/07/21 11:14:00;;;;;;;729.67;683.65;;;23.10;99.90;;;;;;5061754;28;20506;-72
2022/07/21 11:16:41;;;;;;;649.53;609.33;;;22.70;99.90;;;;;;5087191;28;20173;-73
2022/07/21 11:19:40;;;;;;;653.35;612.63;;;22.10;99.90;;;;;;5066845;28;20230;-74
2022/07/21 11:22:10;;;;;;;649.58;610.28;;;21.90;99.90;;;;;;5066942;28;20177;-72
2022/07/21 11:24:36;;;;;;;731.28;684.88;;;21.80;99.90;;;;;;5081165;28;20246;-75
2022/07/21 11:27:08;;;;;;;725.95;680.10;;;21.60;99.90;;;;;;5065139;28;20180;-75
2022/07/21 11:29:36;;;;;;;796.53;744.47;;;21.40;99.90;;;;;;5061470;28;20197;-77
2022/07/21 11:32:02;;;;;;;820.05;763.95;;;21.20;99.90;;;;;;5073523;28;20178;-77
2022/07/21 11:34:49;;;;;;;887.72;826.65;;;21.00;99.90;;;;;;5039188;28;20264;-76
2022/07/21 11:37:18;;;;;;;818.65;764.67;;;20.80;99.90;;;;;;5074715;28;20173;-75
2022/07/21 11:39:43;;;;;;;847.10;789.00;;;20.50;99.90;;;;;;5091312;28;20226;-76
2022/07/21 11:42:12;;;;;;;918.05;853.05;;;20.60;99.90;;;;;;5084315;28;20217;-77
2022/07/21 11:44:40;;;;;;;951.05;882.58;;;20.50;99.90;;;;;;5065016;28;20215;-74
2022/07/21 11:47:09;;;;;;;969.45;898.70;;;20.50;99.90;;;;;;5069570;28;20181;-77
2022/07/21 11:49:35;;;;;;;976.15;904.05;;;20.60;99.90;;;;;;5073732;28;20193;-76
2022/07/21 11:52:04;;;;;;;926.42;860.58;;;20.90;99.90;;;;;;5074966;28;20204;-76
2022/07/21 11:54:44;;;;;;;921.72;856.13;;;21.20;99.90;;;;;;5090314;28;20179;-74
2022/07/21 11:57:10;;;;;;;942.05;875.05;;;21.30;99.90;;;;;;5079212;28;20168;-76
2022/07/21 11:59:46;;;;;;;910.20;846.72;;;21.30;99.90;;;;;;5074666;28;20192;-75
2022/07/21 12:02:16;;;;;;;848.38;789.50;;;21.30;99.90;;;;;;5074084;28;20169;-76
2022/07/21 12:05:13;;;;;;;861.92;803.50;;;21.20;99.90;;;;;;5079687;28;20533;-75
2022/07/21 12:07:45;;;;;;;774.08;723.30;;;21.20;99.90;;;;;;5070134;28;20329;-76